Time;durP1;ratioP1;P1;durP2;ratioP2;P2;SDS_P1;SDS_P2;PMS_P1;PMS_P2;Temp;Humidity;BMP_temperature;BMP_pressure;BME280_temperature;BME280_humidity;BME280_pressure;Samples;Min_cycle;Max_cycle;Signal;HPM_P1;HPM_P2
2023/04/19 00:01:00;;;;;;;27.10;11.80;;;;;;;10.43;85.16;100824.15;109986;1273;22235;-56
2023/04/19 00:03:31;;;;;;;29.10;12.80;;;;;;;10.41;85.38;100823.73;109990;1268;22998;-57
2023/04/19 00:06:02;;;;;;;30.40;10.80;;;;;;;10.41;85.59;100820.92;110006;1273;23442;-58
2023/04/19 00:08:34;;;;;;;28.00;12.30;;;;;;;10.39;85.40;100819.98;109961;1273;22847;-56
2023/04/19 00:11:04;;;;;;;26.20;10.60;;;;;;;10.36;85.35;100819.70;109943;1273;22397;-56
2023/04/19 00:13:36;;;;;;;24.40;10.90;;;;;;;10.35;85.48;100819.69;109998;1280;22541;-56
2023/04/19 00:16:08;;;;;;;25.90;11.40;;;;;;;10.33;85.29;100819.05;109980;1270;22165;-56
2023/04/19 00:18:39;;;;;;;30.70;11.20;;;;;;;10.30;85.35;100820.77;110000;1276;22458;-55
2023/04/19 00:21:10;;;;;;;30.20;12.20;;;;;;;10.29;85.53;100818.65;110007;1267;22264;-57
2023/04/19 00:23:41;;;;;;;22.50;10.20;;;;;;;10.28;85.44;100812.88;109996;1271;22197;-57
2023/04/19 00:26:14;;;;;;;27.80;10.40;;;;;;;10.25;85.19;100810.75;109981;1273;22180;-57
2023/04/19 00:28:45;;;;;;;25.50;10.30;;;;;;;10.17;85.11;100804.18;109990;1280;22136;-56
2023/04/19 00:31:16;;;;;;;24.00;10.00;;;;;;;10.13;85.29;100799.19;109991;1280;22879;-55
2023/04/19 00:33:47;;;;;;;25.20;11.30;;;;;;;10.09;85.01;100793.30;109991;1273;22195;-56
2023/04/19 00:36:18;;;;;;;28.40;11.20;;;;;;;10.07;85.29;100794.40;109965;1265;22215;-57
2023/04/19 00:38:49;;;;;;;25.00;10.00;;;;;;;10.04;85.44;100792.91;109982;1273;22246;-55
2023/04/19 00:41:20;;;;;;;24.40;9.80;;;;;;;9.99;85.04;100787.95;109958;1270;22151;-55
2023/04/19 00:43:51;;;;;;;23.60;10.10;;;;;;;9.95;85.18;100786.84;109964;1273;22197;-55
2023/04/19 00:46:22;;;;;;;22.80;9.00;;;;;;;9.91;85.06;100785.41;109963;1280;22173;-57
2023/04/19 00:48:53;;;;;;;25.30;9.50;;;;;;;9.88;85.22;100784.01;109968;1276;22263;-57
2023/04/19 00:51:25;;;;;;;26.50;9.80;;;;;;;9.86;85.06;100778.21;109973;1269;22226;-56
2023/04/19 00:53:57;;;;;;;25.90;10.00;;;;;;;9.84;85.08;100780.84;109960;1273;22345;-58
2023/04/19 00:56:29;;;;;;;22.40;9.20;;;;;;;9.80;85.02;100774.02;109981;1273;22245;-57
2023/04/19 00:59:00;;;;;;;25.90;9.10;;;;;;;9.75;84.76;100771.30;109954;1265;23065;-55
2023/04/19 01:01:31;;;;;;;21.20;8.80;;;;;;;9.72;84.61;100767.80;109969;1274;22363;-55
2023/04/19 01:04:03;;;;;;;21.80;8.40;;;;;;;9.65;84.47;100764.28;109976;1273;22200;-56
2023/04/19 01:06:34;;;;;;;24.70;9.20;;;;;;;9.59;84.71;100761.88;109963;1269;22351;-56
2023/04/19 01:09:05;;;;;;;24.80;9.80;;;;;;;9.59;84.94;100757.63;109980;1273;22170;-57
2023/04/19 01:11:36;;;;;;;24.00;8.30;;;;;;;9.57;84.58;100756.04;109972;1273;22267;-57
2023/04/19 01:14:07;;;;;;;21.60;8.30;;;;;;;9.54;84.44;100756.00;110001;1273;22161;-55
2023/04/19 01:16:38;;;;;;;20.80;7.90;;;;;;;9.49;84.50;100757.11;109989;1279;22216;-55
2023/04/19 01:19:09;;;;;;;21.50;9.30;;;;;;;9.45;84.47;100753.52;109952;1273;22467;-55
2023/04/19 01:21:41;;;;;;;24.50;8.70;;;;;;;9.43;84.41;100747.69;109998;1270;23088;-57
2023/04/19 01:24:12;;;;;;;21.60;7.70;;;;;;;9.41;84.29;100746.77;110010;1274;22957;-55
2023/04/19 01:26:43;;;;;;;18.70;7.30;;;;;;;9.39;84.21;100744.55;110007;1272;22767;-57
2023/04/19 01:29:14;;;;;;;23.60;8.20;;;;;;;9.36;83.87;100743.41;109980;1271;22186;-55
2023/04/19 01:31:50;;;;;;;19.50;7.80;;;;;;;9.33;83.73;100740.31;109986;1280;22341;-55
2023/04/19 01:34:21;;;;;;;18.30;7.90;;;;;;;9.27;83.20;100741.03;109975;1276;23154;-55
2023/04/19 01:36:52;;;;;;;19.50;6.60;;;;;;;9.22;83.43;100738.45;109971;1273;22303;-57
2023/04/19 01:39:26;;;;;;;22.20;8.10;;;;;;;9.19;83.29;100737.61;109950;1280;22160;-55
2023/04/19 01:41:56;;;;;;;21.70;7.30;;;;;;;9.16;83.16;100732.89;109957;1274;22238;-55
2023/04/19 01:44:27;;;;;;;22.00;8.50;;;;;;;9.12;83.54;100729.77;109964;1273;22232;-56
2023/04/19 01:46:58;;;;;;;24.20;7.70;;;;;;;9.10;83.39;100728.27;109961;1265;22286;-55
2023/04/19 01:49:29;;;;;;;17.30;7.30;;;;;;;9.06;82.89;100721.35;110008;1274;22244;-58
2023/04/19 01:52:00;;;;;;;16.90;6.30;;;;;;;9.01;82.93;100722.63;109994;1276;23090;-56
2023/04/19 01:54:31;;;;;;;18.20;6.40;;;;;;;9.00;82.50;100719.24;109989;1273;22327;-57
2023/04/19 01:57:02;;;;;;;15.60;5.80;;;;;;;8.94;82.06;100719.63;109973;1267;23210;-57
2023/04/19 01:59:33;;;;;;;16.50;6.00;;;;;;;8.90;81.65;100722.91;109981;1273;22273;-57
2023/04/19 02:02:06;;;;;;;17.50;6.00;;;;;;;8.87;81.85;100723.17;109977;1266;22628;-55
2023/04/19 02:04:37;;;;;;;18.20;6.50;;;;;;;8.85;81.50;100724.73;110035;1274;22858;-58
2023/04/19 02:07:08;;;;;;;15.80;6.10;;;;;;;8.80;81.05;100720.88;109990;1273;22241;-57
2023/04/19 02:09:39;;;;;;;18.10;6.10;;;;;;;8.78;80.78;100718.84;109993;1270;22425;-55
2023/04/19 02:12:10;;;;;;;18.90;6.60;;;;;;;8.75;80.32;100717.73;110017;1273;22460;-57
2023/04/19 02:14:41;;;;;;;18.90;6.70;;;;;;;8.73;80.54;100718.70;109982;1270;22369;-56
2023/04/19 02:17:13;;;;;;;22.00;7.40;;;;;;;8.72;80.31;100717.06;109967;1273;22332;-58
2023/04/19 02:19:43;;;;;;;18.00;6.30;;;;;;;8.71;80.58;100716.02;109991;1280;22438;-58
2023/04/19 02:22:14;;;;;;;16.10;5.60;;;;;;;8.67;80.23;100711.92;110006;1270;22995;-55
2023/04/19 02:24:46;;;;;;;16.10;5.40;;;;;;;8.63;80.31;100713.75;109978;1273;22201;-58
2023/04/19 02:27:17;;;;;;;18.40;5.90;;;;;;;8.60;80.11;100712.89;110008;1273;22161;-57
2023/04/19 02:29:48;;;;;;;16.90;4.70;;;;;;;8.56;79.00;100710.98;110003;1273;22338;-57
2023/04/19 02:32:19;;;;;;;18.90;5.70;;;;;;;8.50;78.98;100706.13;109976;1273;22269;-57
2023/04/19 02:34:49;;;;;;;16.30;4.90;;;;;;;8.46;79.11;100704.98;109978;1272;22213;-56
2023/04/19 02:37:20;;;;;;;15.30;4.30;;;;;;;8.45;78.15;100707.02;109995;1280;22136;-57
2023/04/19 02:39:51;;;;;;;14.40;4.60;;;;;;;8.41;77.65;100704.39;107526;1274;22526;-54
2023/04/19 02:42:22;;;;;;;19.40;4.70;;;;;;;8.34;77.81;100703.85;105929;1273;22537;-58
2023/04/19 02:44:53;;;;;;;13.80;4.30;;;;;;;8.31;77.52;100699.13;105949;1273;26650;-54
2023/04/19 02:47:24;;;;;;;15.20;3.90;;;;;;;8.27;76.92;100699.34;105925;1280;26583;-55
2023/04/19 02:49:55;;;;;;;11.70;3.70;;;;;;;8.23;76.78;100695.33;105952;1270;24234;-55
2023/04/19 02:52:27;;;;;;;11.90;3.50;;;;;;;8.17;75.74;100699.11;105938;1274;25651;-56
2023/04/19 02:54:58;;;;;;;13.80;3.10;;;;;;;8.10;76.08;100697.14;105922;1280;22655;-54
2023/04/19 02:57:29;;;;;;;10.20;2.60;;;;;;;8.04;75.66;100694.80;105916;1274;22658;-56
2023/04/19 03:00:00;;;;;;;12.90;3.60;;;;;;;7.99;75.63;100693.02;105939;1273;24381;-57
2023/04/19 03:02:31;;;;;;;11.70;3.10;;;;;;;7.95;75.41;100683.91;105931;1277;22549;-56
2023/04/19 03:05:02;;;;;;;10.60;2.50;;;;;;;7.92;75.24;100690.01;110016;1264;22466;-57
2023/04/19 03:07:33;;;;;;;11.40;2.50;;;;;;;7.86;75.23;100686.92;110068;1279;22249;-55
2023/04/19 03:10:05;;;;;;;11.80;2.30;;;;;;;7.82;74.95;100684.70;110027;1267;22174;-57
2023/04/19 03:12:35;;;;;;;11.80;2.90;;;;;;;7.77;74.49;100682.74;109984;1270;23124;-57
2023/04/19 03:15:08;;;;;;;11.30;3.00;;;;;;;7.73;74.28;100682.05;109994;1270;23089;-55
2023/04/19 03:17:39;;;;;;;14.40;2.70;;;;;;;7.71;74.12;100679.19;109980;1274;22206;-55
2023/04/19 03:20:12;;;;;;;12.70;2.60;;;;;;;7.68;74.04;100675.89;109989;1266;22168;-57
2023/04/19 03:22:42;;;;;;;9.60;1.90;;;;;;;7.67;73.88;100671.02;109973;1280;22558;-56
2023/04/19 03:25:13;;;;;;;14.50;2.60;;;;;;;7.64;73.84;100676.74;110026;1273;22197;-56
2023/04/19 03:27:46;;;;;;;11.10;2.50;;;;;;;7.60;73.31;100671.31;109944;1273;22275;-54
2023/04/19 03:30:17;;;;;;;10.80;1.90;;;;;;;7.60;73.27;100671.33;110001;1273;22345;-57
2023/04/19 03:32:50;;;;;;;8.40;1.80;;;;;;;7.61;74.08;100673.52;109979;1270;22981;-55
2023/04/19 03:35:25;;;;;;;11.90;2.70;;;;;;;7.61;73.12;100669.95;109997;1273;22291;-58
2023/04/19 03:37:55;;;;;;;14.90;1.90;;;;;;;7.61;73.91;100663.90;109963;1271;22414;-57
2023/04/19 03:40:26;;;;;;;11.50;2.30;;;;;;;7.62;73.62;100661.16;107099;1280;22551;-54
2023/04/19 03:42:57;;;;;;;11.00;2.90;;;;;;;7.62;73.24;100655.93;106180;1280;22574;-54
2023/04/19 03:45:28;;;;;;;10.20;2.40;;;;;;;7.61;73.35;100655.16;105892;1280;24274;-54
2023/04/19 03:47:59;;;;;;;10.80;2.90;;;;;;;7.60;73.46;100659.48;105944;1277;22579;-55
2023/04/19 03:50:30;;;;;;;12.70;3.00;;;;;;;7.59;73.59;100655.79;106048;1267;22547;-57
2023/04/19 03:53:00;;;;;;;12.40;3.10;;;;;;;7.54;72.98;100659.79;106196;1274;22550;-54
2023/04/19 03:55:32;;;;;;;13.50;2.20;;;;;;;7.49;73.31;100662.73;105938;1280;24239;-57
2023/04/19 03:58:02;;;;;;;12.40;2.70;;;;;;;7.45;72.96;100666.67;109974;1272;22272;-56
2023/04/19 04:00:33;;;;;;;11.80;1.80;;;;;;;7.41;72.46;100665.46;109986;1273;22347;-56
2023/04/19 04:03:04;;;;;;;13.20;2.50;;;;;;;7.37;72.55;100673.45;109985;1272;22155;-57
2023/04/19 04:05:36;;;;;;;9.00;2.00;;;;;;;7.34;72.78;100671.00;110026;1269;22352;-55
2023/04/19 04:08:07;;;;;;;7.40;2.00;;;;;;;7.30;72.73;100666.52;109957;1264;23091;-55
2023/04/19 04:10:37;;;;;;;8.40;1.80;;;;;;;7.26;72.68;100666.88;109981;1274;22403;-58
2023/04/19 04:13:08;;;;;;;9.90;2.10;;;;;;;7.23;72.65;100663.10;109994;1273;22299;-55
2023/04/19 04:15:40;;;;;;;9.80;2.00;;;;;;;7.18;71.55;100660.58;110013;1270;22351;-61
2023/04/19 04:18:11;;;;;;;14.70;2.40;;;;;;;7.14;72.16;100665.70;109965;1273;22187;-57
2023/04/19 04:20:43;;;;;;;12.70;2.40;;;;;;;7.08;71.66;100670.55;110001;1274;22205;-55
2023/04/19 04:23:15;;;;;;;9.20;1.80;;;;;;;7.04;72.05;100670.14;110026;1265;22149;-54
2023/04/19 04:25:46;;;;;;;9.60;2.20;;;;;;;6.99;71.69;100665.39;110022;1280;22239;-57
2023/04/19 04:28:17;;;;;;;10.90;2.30;;;;;;;6.91;71.98;100676.48;110013;1273;22259;-57
2023/04/19 04:30:48;;;;;;;12.40;2.20;;;;;;;6.80;72.38;100677.55;109979;1266;22217;-55
2023/04/19 04:33:19;;;;;;;8.30;2.00;;;;;;;6.66;73.75;100675.61;109977;1274;22331;-57
2023/04/19 04:35:50;;;;;;;11.90;2.30;;;;;;;6.52;75.91;100680.69;109991;1273;22210;-59
2023/04/19 04:38:21;;;;;;;7.20;1.60;;;;;;;6.41;76.82;100685.13;109970;1270;22361;-58
2023/04/19 04:40:55;;;;;;;12.80;2.30;;;;;;;6.28;77.49;100685.67;109965;1273;23201;-58
2023/04/19 04:43:28;;;;;;;8.50;1.80;;;;;;;6.14;78.28;100677.58;109987;1274;22155;-54
2023/04/19 04:46:00;;;;;;;9.00;2.00;;;;;;;6.04;78.68;100673.90;109994;1270;22842;-55
2023/04/19 04:48:31;;;;;;;12.90;2.80;;;;;;;5.94;79.10;100682.27;109992;1264;22642;-54
2023/04/19 04:51:02;;;;;;;10.80;2.40;;;;;;;5.87;79.39;100676.66;109977;1264;22154;-57
2023/04/19 04:53:33;;;;;;;12.30;2.00;;;;;;;5.86;79.85;100680.83;109994;1270;22174;-55
2023/04/19 04:56:04;;;;;;;13.10;2.50;;;;;;;5.75;79.97;100682.88;110015;1264;22199;-57
2023/04/19 04:58:35;;;;;;;11.40;2.80;;;;;;;5.65;80.20;100684.95;110026;1273;22418;-56
2023/04/19 05:01:06;;;;;;;11.30;2.30;;;;;;;5.62;80.76;100683.69;110036;1273;22349;-54
2023/04/19 05:03:37;;;;;;;10.30;2.30;;;;;;;5.60;81.43;100679.48;109988;1272;22164;-53
2023/04/19 05:06:09;;;;;;;10.40;2.20;;;;;;;5.54;81.78;100684.54;109983;1273;22163;-57
2023/04/19 05:08:40;;;;;;;9.60;2.20;;;;;;;5.43;81.69;100686.95;107644;1273;22849;-55
2023/04/19 05:11:11;;;;;;;14.00;3.20;;;;;;;5.36;81.64;100685.05;110005;1273;22163;-53
2023/04/19 05:13:42;;;;;;;8.10;2.30;;;;;;;5.35;81.83;100686.85;110032;1273;22913;-55
2023/04/19 05:16:13;;;;;;;10.80;2.50;;;;;;;5.31;82.03;100685.52;109970;1273;22961;-53
2023/04/19 05:18:44;;;;;;;13.60;3.10;;;;;;;5.32;81.89;100682.30;110005;1267;22358;-56
2023/04/19 05:21:14;;;;;;;13.10;2.80;;;;;;;5.36;82.01;100683.17;109961;1269;22199;-53
2023/04/19 05:23:45;;;;;;;11.10;2.70;;;;;;;5.40;82.42;100682.36;110011;1264;22225;-53
2023/04/19 05:26:18;;;;;;;11.00;2.50;;;;;;;5.42;82.19;100674.95;109982;1264;22170;-55
2023/04/19 05:28:49;;;;;;;8.10;2.10;;;;;;;5.43;82.32;100675.07;107536;1273;22608;-56
2023/04/19 05:31:21;;;;;;;11.30;2.80;;;;;;;5.40;82.17;100675.57;105996;1280;22530;-53
2023/04/19 05:33:52;;;;;;;10.30;2.50;;;;;;;5.37;82.18;100672.55;105787;1267;25363;-56
2023/04/19 05:36:23;;;;;;;10.80;3.10;;;;;;;5.35;82.29;100671.17;105746;1267;25363;-54
2023/04/19 05:38:54;;;;;;;12.70;2.40;;;;;;;5.33;82.34;100670.12;105786;1279;22531;-53
2023/04/19 05:41:24;;;;;;;13.60;3.10;;;;;;;5.35;82.36;100669.52;105814;1280;22565;-55
2023/04/19 05:43:55;;;;;;;14.60;2.80;;;;;;;5.35;82.47;100669.20;105806;1273;22814;-53
2023/04/19 05:46:26;;;;;;;19.30;3.40;;;;;;;5.34;82.67;100674.04;105899;1279;22539;-56
2023/04/19 05:48:57;;;;;;;13.40;3.30;;;;;;;5.36;82.85;100663.70;105948;1264;22564;-56
2023/04/19 05:51:28;;;;;;;13.70;3.40;;;;;;;5.35;82.56;100666.35;105899;1268;22643;-54
2023/04/19 05:53:59;;;;;;;12.00;2.90;;;;;;;5.29;82.33;100657.63;105835;1274;22605;-55
2023/04/19 05:56:30;;;;;;;14.20;3.00;;;;;;;5.24;82.57;100661.48;105622;1267;319566;-55
2023/04/19 05:59:01;;;;;;;12.10;2.70;;;;;;;5.22;82.38;100661.70;105814;1267;22658;-56
2023/04/19 06:01:32;;;;;;;15.00;3.90;;;;;;;5.19;82.49;100658.67;105859;1279;22536;-55
2023/04/19 06:04:03;;;;;;;9.70;2.40;;;;;;;5.21;82.94;100657.86;105827;1276;22523;-55
2023/04/19 06:06:34;;;;;;;9.40;2.20;;;;;;;5.23;82.85;100654.87;105880;1277;25306;-55
2023/04/19 06:09:05;;;;;;;12.40;3.40;;;;;;;5.24;82.68;100657.68;105884;1280;22637;-54
2023/04/19 06:11:36;;;;;;;11.30;2.50;;;;;;;5.26;82.83;100654.08;105875;1273;22698;-57
2023/04/19 06:14:07;;;;;;;10.00;2.50;;;;;;;5.23;82.39;100656.76;105844;1279;22553;-56
2023/04/19 06:16:38;;;;;;;15.80;2.80;;;;;;;5.23;82.82;100658.97;105898;1279;24379;-54
2023/04/19 06:19:08;;;;;;;12.60;2.70;;;;;;;5.24;83.08;100662.90;105845;1267;23286;-53
2023/04/19 06:21:39;;;;;;;9.80;2.50;;;;;;;5.20;82.40;100661.83;105813;1273;24411;-54
2023/04/19 06:24:10;;;;;;;13.80;3.40;;;;;;;5.14;82.31;100659.91;105876;1277;25330;-54
2023/04/19 06:26:42;;;;;;;12.70;2.70;;;;;;;5.09;82.29;100667.92;105839;1274;22538;-55
2023/04/19 06:29:12;;;;;;;12.00;2.90;;;;;;;5.05;82.37;100673.01;109969;1273;23518;-57
2023/04/19 06:31:45;;;;;;;13.30;3.10;;;;;;;5.00;81.91;100666.08;109976;1276;23207;-57
2023/04/19 06:34:16;;;;;;;12.30;2.70;;;;;;;4.94;82.18;100671.13;110037;1279;23433;-60
2023/04/19 06:36:46;;;;;;;12.50;2.50;;;;;;;4.91;82.15;100676.73;110015;1264;23262;-54
2023/04/19 06:39:17;;;;;;;13.90;2.90;;;;;;;4.92;82.55;100672.13;109986;1269;22154;-54
2023/04/19 06:41:48;;;;;;;14.10;2.50;;;;;;;4.93;82.55;100671.46;109979;1273;22936;-54
2023/04/19 06:44:19;;;;;;;10.80;2.60;;;;;;;4.96;82.80;100670.20;110045;1273;22374;-55
2023/04/19 06:46:50;;;;;;;12.50;3.60;;;;;;;4.98;82.63;100669.30;110015;1273;22228;-58
2023/04/19 06:49:21;;;;;;;15.50;3.10;;;;;;;4.99;82.57;100664.61;109998;1271;22317;-55
2023/04/19 06:51:52;;;;;;;15.00;2.30;;;;;;;5.01;82.55;100664.25;109980;1273;22319;-54
2023/04/19 06:54:23;;;;;;;13.70;3.10;;;;;;;5.01;82.43;100662.92;110038;1264;22204;-54
2023/04/19 06:56:53;;;;;;;18.60;3.90;;;;;;;5.03;82.85;100669.42;109995;1273;22262;-55
2023/04/19 06:59:27;;;;;;;18.00;3.30;;;;;;;5.08;82.87;100669.55;109965;1273;22348;-55
2023/04/19 07:01:58;;;;;;;15.90;3.30;;;;;;;5.11;82.97;100673.42;109998;1271;22354;-54
2023/04/19 07:04:29;;;;;;;15.10;3.20;;;;;;;5.15;82.99;100671.61;109979;1279;22459;-56
2023/04/19 07:07:00;;;;;;;10.20;2.80;;;;;;;5.17;82.68;100678.19;109999;1273;22225;-54
2023/04/19 07:09:31;;;;;;;13.00;2.60;;;;;;;5.16;82.70;100675.43;110024;1267;22319;-55
2023/04/19 07:12:02;;;;;;;14.90;3.00;;;;;;;5.19;82.90;100668.42;109985;1264;22252;-56
2023/04/19 07:14:32;;;;;;;13.10;2.80;;;;;;;5.23;83.27;100668.38;110040;1270;23109;-56
2023/04/19 07:17:05;;;;;;;14.00;3.20;;;;;;;5.29;83.43;100668.95;109869;1273;22251;-56
2023/04/19 07:19:36;;;;;;;18.10;3.80;;;;;;;5.33;83.20;100672.17;109950;1279;22257;-55
2023/04/19 07:22:07;;;;;;;13.40;3.60;;;;;;;5.34;82.94;100668.67;109981;1273;22939;-55
2023/04/19 07:24:40;;;;;;;13.70;3.10;;;;;;;5.28;82.73;100663.67;110022;1272;22335;-55
2023/04/19 07:27:13;;;;;;;21.40;4.80;;;;;;;5.26;83.25;100663.48;110013;1273;22246;-54
2023/04/19 07:29:43;;;;;;;14.60;4.60;;;;;;;5.27;82.99;100659.05;109976;1270;23482;-55
2023/04/19 07:32:14;;;;;;;15.80;3.70;;;;;;;5.27;83.01;100656.58;109968;1270;22388;-57
2023/04/19 07:34:45;;;;;;;13.70;3.50;;;;;;;5.26;82.90;100654.80;110055;1263;22148;-56
2023/04/19 07:37:16;;;;;;;14.00;3.20;;;;;;;5.25;83.19;100657.66;110049;1269;22486;-57
2023/04/19 07:39:47;;;;;;;14.80;3.90;;;;;;;5.23;82.93;100660.65;110011;1264;22174;-58
2023/04/19 07:42:18;;;;;;;12.90;3.20;;;;;;;5.20;82.89;100661.18;110032;1273;22177;-55
2023/04/19 07:44:49;;;;;;;15.20;3.70;;;;;;;5.22;83.27;100664.30;110018;1273;22226;-57
2023/04/19 07:47:20;;;;;;;13.60;3.40;;;;;;;5.27;83.41;100659.13;110019;1267;22257;-56
2023/04/19 07:49:53;;;;;;;16.20;3.90;;;;;;;5.33;83.46;100662.70;110029;1264;23172;-55
2023/04/19 07:52:24;;;;;;;16.60;3.60;;;;;;;5.39;83.52;100655.82;110039;1280;22224;-55
2023/04/19 07:54:55;;;;;;;12.20;3.20;;;;;;;5.44;83.43;100657.98;109975;1267;23418;-55
2023/04/19 07:57:26;;;;;;;15.70;3.60;;;;;;;5.49;83.50;100649.54;109969;1273;23077;-56
2023/04/19 07:59:58;;;;;;;16.60;3.50;;;;;;;5.56;83.92;100648.96;109990;1276;22228;-55
2023/04/19 08:02:29;;;;;;;18.30;5.60;;;;;;;5.61;83.63;100646.07;109996;1273;22228;-56
2023/04/19 08:05:01;;;;;;;17.80;4.80;;;;;;;5.66;84.02;100641.17;110007;1273;22203;-57
2023/04/19 08:07:31;;;;;;;12.60;4.30;;;;;;;5.73;84.22;100635.20;109998;1280;22154;-55
2023/04/19 08:10:02;;;;;;;20.20;5.00;;;;;;;5.75;83.82;100635.95;110002;1273;22162;-57
2023/04/19 08:12:33;;;;;;;14.10;3.90;;;;;;;5.77;84.07;100640.64;110021;1276;22384;-55
2023/04/19 08:15:06;;;;;;;13.10;3.60;;;;;;;5.80;84.22;100643.52;110022;1276;22225;-55
2023/04/19 08:17:37;;;;;;;14.60;3.30;;;;;;;5.82;83.71;100643.45;110011;1274;22227;-58
2023/04/19 08:20:11;;;;;;;14.00;4.90;;;;;;;5.82;83.84;100645.04;109977;1273;23069;-57
2023/04/19 08:22:42;;;;;;;14.90;4.10;;;;;;;5.86;84.10;100644.48;110002;1280;22232;-55
2023/04/19 08:25:13;;;;;;;18.30;5.20;;;;;;;5.88;84.01;100642.29;110032;1276;22198;-57
2023/04/19 08:27:43;;;;;;;14.00;4.60;;;;;;;5.89;83.67;100642.41;110015;1273;22236;-57
2023/04/19 08:30:15;;;;;;;16.50;4.50;;;;;;;5.90;83.83;100644.15;110002;1273;22900;-55
2023/04/19 08:32:46;;;;;;;13.20;4.60;;;;;;;5.90;83.71;100644.84;109978;1273;22180;-55
2023/04/19 08:35:17;;;;;;;14.70;4.40;;;;;;;5.82;83.23;100646.46;109996;1273;22977;-58
2023/04/19 08:37:48;;;;;;;15.80;4.40;;;;;;;5.76;83.38;100641.87;110004;1273;22193;-57
2023/04/19 08:40:19;;;;;;;15.10;4.90;;;;;;;5.73;83.59;100641.77;109999;1280;22198;-57
2023/04/19 08:42:50;;;;;;;21.80;4.80;;;;;;;5.69;83.51;100640.21;110010;1269;22157;-55
2023/04/19 08:45:21;;;;;;;17.40;5.00;;;;;;;5.71;83.82;100635.27;110009;1273;22286;-55
2023/04/19 08:47:54;;;;;;;19.00;5.70;;;;;;;5.76;83.87;100633.80;110015;1267;22207;-58
2023/04/19 08:50:25;;;;;;;20.40;5.70;;;;;;;5.82;83.93;100632.20;110020;1267;22157;-57
2023/04/19 08:52:58;;;;;;;19.00;5.80;;;;;;;5.89;84.01;100629.50;109977;1273;22326;-57
2023/04/19 08:55:29;;;;;;;14.30;4.60;;;;;;;5.99;83.98;100631.29;110015;1280;22272;-57
2023/04/19 08:58:02;;;;;;;22.90;5.50;;;;;;;6.10;84.30;100627.98;110007;1280;22968;-57
2023/04/19 09:00:35;;;;;;;17.40;5.60;;;;;;;6.14;83.52;100630.39;110010;1273;22183;-54
2023/04/19 09:03:08;;;;;;;22.10;5.50;;;;;;;6.09;83.04;100629.19;109990;1273;22152;-55
2023/04/19 09:05:39;;;;;;;14.10;4.20;;;;;;;6.03;83.01;100625.73;109980;1277;22169;-57
2023/04/19 09:08:27;;;;;;;16.10;4.40;;;;;;;6.05;83.58;100622.70;110017;1271;22911;-56
2023/04/19 09:10:59;;;;;;;15.40;4.50;;;;;;;6.09;83.28;100626.48;109983;1273;22343;-56
2023/04/19 09:13:31;;;;;;;15.00;3.60;;;;;;;6.05;82.83;100626.17;109998;1280;22499;-55
2023/04/19 09:16:03;;;;;;;12.10;3.80;;;;;;;6.00;83.10;100621.84;109990;1270;22917;-57
2023/04/19 09:18:52;;;;;;;18.70;3.80;;;;;;;6.01;83.55;100625.45;110010;1273;22128;-58
2023/04/19 09:21:31;;;;;;;15.10;3.50;;;;;;;5.97;82.82;100625.78;109993;1273;22227;-54
2023/04/19 09:24:03;;;;;;;15.90;4.00;;;;;;;5.91;83.26;100618.54;109977;1273;22161;-58
2023/04/19 09:26:34;;;;;;;13.50;3.80;;;;;;;5.86;83.46;100617.40;109988;1275;22309;-57
2023/04/19 09:29:05;;;;;;;18.60;4.40;;;;;;;5.82;83.33;100621.29;109969;1273;22364;-58
2023/04/19 09:31:38;;;;;;;16.10;4.60;;;;;;;5.76;83.39;100621.67;110005;1280;22229;-55
2023/04/19 09:34:16;;;;;;;21.10;5.20;;;;;;;5.72;83.71;100617.66;109995;1273;22958;-55
2023/04/19 09:36:48;;;;;;;17.90;5.50;;;;;;;5.69;83.66;100617.73;109985;1273;22133;-55
2023/04/19 09:39:30;;;;;;;16.20;4.60;;;;;;;5.67;83.85;100618.69;109978;1270;22853;-57
2023/04/19 09:42:01;;;;;;;18.60;4.80;;;;;;;5.66;84.10;100616.95;109980;1273;22154;-56
2023/04/19 09:44:34;;;;;;;15.50;5.00;;;;;;;5.68;84.16;100616.88;110017;1267;22220;-56
2023/04/19 09:47:25;;;;;;;17.20;3.90;;;;;;;5.71;84.50;100613.34;109995;1264;22891;-55
2023/04/19 09:50:12;;;;;;;14.40;5.10;;;;;;;5.70;83.81;100619.48;109985;1273;22443;-56
2023/04/19 09:52:44;;;;;;;16.90;4.90;;;;;;;5.66;84.59;100618.77;110002;1277;22241;-56
2023/04/19 09:55:15;;;;;;;16.80;4.00;;;;;;;5.67;84.75;100621.84;110007;1273;22223;-55
2023/04/19 09:57:46;;;;;;;15.40;4.80;;;;;;;5.64;84.57;100622.70;110016;1273;22129;-56
2023/04/19 10:00:18;;;;;;;22.60;4.80;;;;;;;5.65;84.27;100620.79;109995;1273;22210;-56
2023/04/19 10:02:54;;;;;;;20.40;6.20;;;;;;;5.64;84.24;100623.82;110029;1274;22792;-57
2023/04/19 10:05:25;;;;;;;16.70;5.40;;;;;;;5.65;84.04;100621.42;109994;1273;22208;-57
2023/04/19 10:07:58;;;;;;;16.90;5.50;;;;;;;5.66;84.15;100617.28;110003;1272;22353;-56
2023/04/19 10:10:29;;;;;;;20.40;6.30;;;;;;;5.64;84.00;100614.81;110018;1280;22395;-55
2023/04/19 10:13:02;;;;;;;19.00;6.30;;;;;;;5.63;84.02;100611.98;109964;1273;22206;-57
2023/04/19 10:15:34;;;;;;;21.50;6.40;;;;;;;5.62;84.05;100616.11;110009;1273;22378;-57
2023/04/19 10:18:06;;;;;;;22.20;7.80;;;;;;;5.62;84.21;100616.58;110030;1274;22166;-56
2023/04/19 10:20:45;;;;;;;23.00;6.50;;;;;;;5.65;84.53;100612.00;110004;1273;22254;-56
2023/04/19 10:23:17;;;;;;;19.40;6.80;;;;;;;5.66;84.80;100613.94;109979;1270;22164;-56
2023/04/19 10:25:49;;;;;;;19.00;6.00;;;;;;;5.67;84.66;100608.07;109988;1280;22204;-56
2023/04/19 10:28:20;;;;;;;17.90;6.00;;;;;;;5.68;84.41;100611.44;110015;1276;22252;-56
2023/04/19 10:31:01;;;;;;;24.30;7.10;;;;;;;5.68;84.58;100608.59;109975;1274;22199;-55
2023/04/19 10:33:35;;;;;;;20.90;7.20;;;;;;;5.70;84.53;100606.48;109985;1276;22334;-56
2023/04/19 10:36:11;;;;;;;16.90;5.90;;;;;;;5.71;84.60;100601.55;110013;1274;22314;-55
2023/04/19 10:38:43;;;;;;;22.40;7.50;;;;;;;5.73;84.71;100597.45;109988;1267;22181;-58
2023/04/19 10:41:14;;;;;;;22.20;7.60;;;;;;;5.77;84.88;100598.71;109987;1276;22174;-55
2023/04/19 10:43:48;;;;;;;24.10;7.10;;;;;;;5.79;84.57;100597.70;110012;1280;22219;-55
2023/04/19 10:46:40;;;;;;;17.90;7.00;;;;;;;5.81;84.95;100600.65;110005;1280;23069;-57
2023/04/19 10:49:12;;;;;;;23.20;6.90;;;;;;;5.82;84.64;100600.48;110018;1273;22941;-57
2023/04/19 10:51:50;;;;;;;15.70;5.90;;;;;;;5.84;84.88;100603.36;109975;1267;22909;-56
2023/04/19 10:54:40;;;;;;;22.50;6.80;;;;;;;5.87;84.99;100598.61;110005;1276;22205;-55
2023/04/19 10:57:12;;;;;;;20.10;6.20;;;;;;;5.91;85.12;100597.25;110007;1277;22249;-56
2023/04/19 10:59:43;;;;;;;17.50;6.60;;;;;;;5.93;84.84;100595.52;110013;1274;22244;-56
2023/04/19 11:02:31;;;;;;;22.10;6.50;;;;;;;5.95;85.05;100588.48;110016;1273;22368;-57
2023/04/19 11:05:06;;;;;;;19.50;7.80;;;;;;;6.02;85.48;100590.60;109974;1273;22190;-56
2023/04/19 11:07:43;;;;;;;17.60;6.60;;;;;;;6.07;85.57;100592.81;110023;1280;23092;-55
2023/04/19 11:10:27;;;;;;;20.40;7.30;;;;;;;6.12;85.60;100593.71;110009;1273;22161;-56
2023/04/19 11:12:58;;;;;;;18.30;6.70;;;;;;;6.19;85.59;100590.02;109868;1267;22422;-57
2023/04/19 11:15:29;;;;;;;20.00;7.00;;;;;;;6.23;85.40;100595.25;110009;1274;22242;-55
2023/04/19 11:18:03;;;;;;;21.00;7.00;;;;;;;6.26;85.41;100591.39;109992;1273;22871;-55
2023/04/19 11:20:34;;;;;;;21.40;7.80;;;;;;;6.26;85.24;100591.54;110007;1276;22977;-55
2023/04/19 11:23:15;;;;;;;19.40;7.40;;;;;;;6.25;85.03;100588.70;110036;1274;22286;-55
2023/04/19 11:25:47;;;;;;;21.70;7.90;;;;;;;6.22;85.11;100583.02;109994;1273;23132;-56
2023/04/19 11:28:20;;;;;;;23.60;7.40;;;;;;;6.25;85.48;100585.23;110058;1279;22253;-55
2023/04/19 11:30:51;;;;;;;22.90;8.60;;;;;;;6.27;85.31;100579.23;109982;1273;22172;-56
2023/04/19 11:33:24;;;;;;;20.70;9.20;;;;;;;6.31;85.66;100579.56;109986;1273;22936;-57
2023/04/19 11:35:55;;;;;;;24.60;8.30;;;;;;;6.36;85.66;100583.38;109997;1273;22214;-55
2023/04/19 11:38:29;;;;;;;22.80;7.30;;;;;;;6.38;85.53;100588.21;110014;1273;23163;-57